<?xml version="1.0" encoding="UTF-8" standalone="no" ?>
<gpx xmlns="http://www.topografix.com/GPX/1/1" xmlns:xsi="http://www.w3.org/2001/XMLSchema-instance" xsi:schemaLocation="http://www.topografix.com/GPX/1/1 http://www.topografix.com/GPX/1/1/gpx.xsd" version="1.1" creator="VisuGPX - https://www.visugpx.com">
  <metadata>
    <name>Col de La République-2022-02-27</name>
  </metadata>
  <trk>
    <name><![CDATA[2022-02-27 16:00:38]]></name>
    <extensions>
      <line xmlns="http://www.topografix.com/GPX/gpx_style/0/2">
        <color>0000FF</color>
        <width>4</width>
      </line>
    </extensions>
    <trkseg>
      <trkpt lat="45.32623" lon="4.48116">
        <ele>1137.01</ele>
        <time>2022-02-27T12:25:33Z</time>
      </trkpt>
      <trkpt lat="45.32622" lon="4.48117">
        <ele>1136.98</ele>
        <time>2022-02-27T12:25:35Z</time>
      </trkpt>
      <trkpt lat="45.32606" lon="4.4813">
        <ele>1137.47</ele>
        <time>2022-02-27T12:26:46Z</time>
      </trkpt>
      <trkpt lat="45.32594" lon="4.48139">
        <ele>1137.69</ele>
        <time>2022-02-27T12:26:58Z</time>
      </trkpt>
      <trkpt lat="45.32592" lon="4.48142">
        <ele>1137.92</ele>
        <time>2022-02-27T12:27:06Z</time>
      </trkpt>
      <trkpt lat="45.32579" lon="4.48153">
        <ele>1138.15</ele>
        <time>2022-02-27T12:27:36Z</time>
      </trkpt>
      <trkpt lat="45.32571" lon="4.48158">
        <ele>1138.14</ele>
        <time>2022-02-27T12:27:44Z</time>
      </trkpt>
      <trkpt lat="45.32556" lon="4.48163">
        <ele>1138.3</ele>
        <time>2022-02-27T12:27:56Z</time>
      </trkpt>
      <trkpt lat="45.32552" lon="4.48165">
        <ele>1138.3</ele>
        <time>2022-02-27T12:27:59Z</time>
      </trkpt>
      <trkpt lat="45.32543" lon="4.48168">
        <ele>1138.37</ele>
        <time>2022-02-27T12:28:07Z</time>
      </trkpt>
      <trkpt lat="45.32535" lon="4.48165">
        <ele>1138.7</ele>
        <time>2022-02-27T12:28:17Z</time>
      </trkpt>
      <trkpt lat="45.32537" lon="4.48169">
        <ele>1138.76</ele>
        <time>2022-02-27T12:28:23Z</time>
      </trkpt>
      <trkpt lat="45.32406" lon="4.48281">
        <ele>1131.72</ele>
        <time>2022-02-27T12:31:08Z</time>
      </trkpt>
      <trkpt lat="45.32399" lon="4.48293">
        <ele>1131.51</ele>
        <time>2022-02-27T12:31:13Z</time>
      </trkpt>
      <trkpt lat="45.32393" lon="4.48305">
        <ele>1131.33</ele>
        <time>2022-02-27T12:31:18Z</time>
      </trkpt>
      <trkpt lat="45.32385" lon="4.48323">
        <ele>1130.73</ele>
        <time>2022-02-27T12:31:28Z</time>
      </trkpt>
      <trkpt lat="45.32379" lon="4.48341">
        <ele>1130.18</ele>
        <time>2022-02-27T12:31:37Z</time>
      </trkpt>
      <trkpt lat="45.32367" lon="4.4835">
        <ele>1129.95</ele>
        <time>2022-02-27T12:31:45Z</time>
      </trkpt>
      <trkpt lat="45.32362" lon="4.48355">
        <ele>1129.85</ele>
        <time>2022-02-27T12:31:50Z</time>
      </trkpt>
      <trkpt lat="45.32352" lon="4.48363">
        <ele>1129.61</ele>
        <time>2022-02-27T12:32:00Z</time>
      </trkpt>
      <trkpt lat="45.32341" lon="4.4837">
        <ele>1129.15</ele>
        <time>2022-02-27T12:32:10Z</time>
      </trkpt>
      <trkpt lat="45.32339" lon="4.48376">
        <ele>1129.09</ele>
        <time>2022-02-27T12:32:15Z</time>
      </trkpt>
      <trkpt lat="45.32336" lon="4.48378">
        <ele>1129.05</ele>
        <time>2022-02-27T12:32:19Z</time>
      </trkpt>
      <trkpt lat="45.32334" lon="4.48381">
        <ele>1129.01</ele>
        <time>2022-02-27T12:32:22Z</time>
      </trkpt>
      <trkpt lat="45.32332" lon="4.48384">
        <ele>1128.96</ele>
        <time>2022-02-27T12:32:27Z</time>
      </trkpt>
      <trkpt lat="45.32331" lon="4.48387">
        <ele>1128.91</ele>
        <time>2022-02-27T12:32:30Z</time>
      </trkpt>
      <trkpt lat="45.32333" lon="4.48394">
        <ele>1128.76</ele>
        <time>2022-02-27T12:32:33Z</time>
      </trkpt>
      <trkpt lat="45.32329" lon="4.48407">
        <ele>1128.6</ele>
        <time>2022-02-27T12:32:43Z</time>
      </trkpt>
      <trkpt lat="45.32328" lon="4.48411">
        <ele>1128.47</ele>
        <time>2022-02-27T12:32:46Z</time>
      </trkpt>
      <trkpt lat="45.32316" lon="4.4843">
        <ele>1128.35</ele>
        <time>2022-02-27T12:32:57Z</time>
      </trkpt>
      <trkpt lat="45.32312" lon="4.4844">
        <ele>1128.33</ele>
        <time>2022-02-27T12:33:04Z</time>
      </trkpt>
      <trkpt lat="45.32308" lon="4.48447">
        <ele>1128.18</ele>
        <time>2022-02-27T12:33:11Z</time>
      </trkpt>
      <trkpt lat="45.32302" lon="4.48469">
        <ele>1127.07</ele>
        <time>2022-02-27T12:33:29Z</time>
      </trkpt>
      <trkpt lat="45.32292" lon="4.48484">
        <ele>1126.93</ele>
        <time>2022-02-27T12:33:43Z</time>
      </trkpt>
      <trkpt lat="45.32283" lon="4.485">
        <ele>1126.01</ele>
        <time>2022-02-27T12:33:56Z</time>
      </trkpt>
      <trkpt lat="45.32269" lon="4.4853">
        <ele>1124.91</ele>
        <time>2022-02-27T12:34:12Z</time>
      </trkpt>
      <trkpt lat="45.32254" lon="4.48554">
        <ele>1125.32</ele>
        <time>2022-02-27T12:34:27Z</time>
      </trkpt>
      <trkpt lat="45.32243" lon="4.48561">
        <ele>1125.33</ele>
        <time>2022-02-27T12:34:39Z</time>
      </trkpt>
      <trkpt lat="45.32243" lon="4.4856">
        <ele>1125.23</ele>
        <time>2022-02-27T12:34:40Z</time>
      </trkpt>
      <trkpt lat="45.32237" lon="4.48558">
        <ele>1124.75</ele>
        <time>2022-02-27T12:36:05Z</time>
      </trkpt>
      <trkpt lat="45.32244" lon="4.48542">
        <ele>1125.96</ele>
        <time>2022-02-27T12:36:16Z</time>
      </trkpt>
      <trkpt lat="45.32249" lon="4.48532">
        <ele>1126.07</ele>
        <time>2022-02-27T12:36:23Z</time>
      </trkpt>
      <trkpt lat="45.32252" lon="4.4852">
        <ele>1126.07</ele>
        <time>2022-02-27T12:36:30Z</time>
      </trkpt>
      <trkpt lat="45.32253" lon="4.48519">
        <ele>1126.09</ele>
        <time>2022-02-27T12:36:31Z</time>
      </trkpt>
      <trkpt lat="45.3226" lon="4.48502">
        <ele>1126.63</ele>
        <time>2022-02-27T12:36:41Z</time>
      </trkpt>
      <trkpt lat="45.32268" lon="4.48488">
        <ele>1126.77</ele>
        <time>2022-02-27T12:36:50Z</time>
      </trkpt>
      <trkpt lat="45.3227" lon="4.4848">
        <ele>1126.91</ele>
        <time>2022-02-27T12:36:54Z</time>
      </trkpt>
      <trkpt lat="45.32269" lon="4.48474">
        <ele>1127.01</ele>
        <time>2022-02-27T12:36:57Z</time>
      </trkpt>
      <trkpt lat="45.3227" lon="4.48472">
        <ele>1127.03</ele>
        <time>2022-02-27T12:36:58Z</time>
      </trkpt>
      <trkpt lat="45.32271" lon="4.48471">
        <ele>1127.05</ele>
        <time>2022-02-27T12:36:59Z</time>
      </trkpt>
      <trkpt lat="45.32272" lon="4.48469">
        <ele>1127.07</ele>
        <time>2022-02-27T12:37:00Z</time>
      </trkpt>
      <trkpt lat="45.32273" lon="4.48467">
        <ele>1127.09</ele>
        <time>2022-02-27T12:37:01Z</time>
      </trkpt>
      <trkpt lat="45.32274" lon="4.48466">
        <ele>1127.13</ele>
        <time>2022-02-27T12:37:02Z</time>
      </trkpt>
      <trkpt lat="45.32275" lon="4.48464">
        <ele>1127.16</ele>
        <time>2022-02-27T12:37:03Z</time>
      </trkpt>
      <trkpt lat="45.32276" lon="4.48463">
        <ele>1127.2</ele>
        <time>2022-02-27T12:37:04Z</time>
      </trkpt>
      <trkpt lat="45.32277" lon="4.48461">
        <ele>1127.22</ele>
        <time>2022-02-27T12:37:05Z</time>
      </trkpt>
      <trkpt lat="45.32282" lon="4.48448">
        <ele>1127.4</ele>
        <time>2022-02-27T12:37:14Z</time>
      </trkpt>
      <trkpt lat="45.32282" lon="4.48447">
        <ele>1127.41</ele>
        <time>2022-02-27T12:37:15Z</time>
      </trkpt>
      <trkpt lat="45.32285" lon="4.48433">
        <ele>1127.86</ele>
        <time>2022-02-27T12:37:23Z</time>
      </trkpt>
      <trkpt lat="45.32289" lon="4.48422">
        <ele>1127.95</ele>
        <time>2022-02-27T12:37:30Z</time>
      </trkpt>
      <trkpt lat="45.32294" lon="4.48411">
        <ele>1128.07</ele>
        <time>2022-02-27T12:37:40Z</time>
      </trkpt>
      <trkpt lat="45.32292" lon="4.48409">
        <ele>1128.19</ele>
        <time>2022-02-27T12:37:42Z</time>
      </trkpt>
      <trkpt lat="45.32288" lon="4.48412">
        <ele>1128.3</ele>
        <time>2022-02-27T12:37:48Z</time>
      </trkpt>
      <trkpt lat="45.32287" lon="4.48413">
        <ele>1128.31</ele>
        <time>2022-02-27T12:37:49Z</time>
      </trkpt>
      <trkpt lat="45.32278" lon="4.48421">
        <ele>1129</ele>
        <time>2022-02-27T12:37:59Z</time>
      </trkpt>
      <trkpt lat="45.32271" lon="4.48429">
        <ele>1129.45</ele>
        <time>2022-02-27T12:38:09Z</time>
      </trkpt>
      <trkpt lat="45.32267" lon="4.48432">
        <ele>1129.62</ele>
        <time>2022-02-27T12:38:11Z</time>
      </trkpt>
      <trkpt lat="45.32256" lon="4.48436">
        <ele>1130.65</ele>
        <time>2022-02-27T12:38:20Z</time>
      </trkpt>
      <trkpt lat="45.32249" lon="4.4844">
        <ele>1131.43</ele>
        <time>2022-02-27T12:38:27Z</time>
      </trkpt>
      <trkpt lat="45.32241" lon="4.48443">
        <ele>1131.74</ele>
        <time>2022-02-27T12:38:35Z</time>
      </trkpt>
      <trkpt lat="45.32235" lon="4.48446">
        <ele>1131.97</ele>
        <time>2022-02-27T12:38:43Z</time>
      </trkpt>
      <trkpt lat="45.3223" lon="4.48446">
        <ele>1132.66</ele>
        <time>2022-02-27T12:38:49Z</time>
      </trkpt>
      <trkpt lat="45.32224" lon="4.48445">
        <ele>1133.36</ele>
        <time>2022-02-27T12:38:56Z</time>
      </trkpt>
      <trkpt lat="45.32218" lon="4.48444">
        <ele>1134.02</ele>
        <time>2022-02-27T12:39:02Z</time>
      </trkpt>
      <trkpt lat="45.32211" lon="4.48446">
        <ele>1134.5</ele>
        <time>2022-02-27T12:39:09Z</time>
      </trkpt>
      <trkpt lat="45.32207" lon="4.48449">
        <ele>1134.93</ele>
        <time>2022-02-27T12:39:15Z</time>
      </trkpt>
      <trkpt lat="45.32202" lon="4.48451">
        <ele>1136.16</ele>
        <time>2022-02-27T12:39:21Z</time>
      </trkpt>
      <trkpt lat="45.32197" lon="4.4845">
        <ele>1137.95</ele>
        <time>2022-02-27T12:39:32Z</time>
      </trkpt>
      <trkpt lat="45.32197" lon="4.48448">
        <ele>1138.02</ele>
        <time>2022-02-27T12:39:33Z</time>
      </trkpt>
      <trkpt lat="45.32191" lon="4.48443">
        <ele>1139.5</ele>
        <time>2022-02-27T12:39:38Z</time>
      </trkpt>
      <trkpt lat="45.3219" lon="4.48442">
        <ele>1139.87</ele>
        <time>2022-02-27T12:39:39Z</time>
      </trkpt>
      <trkpt lat="45.32189" lon="4.48441">
        <ele>1140.06</ele>
        <time>2022-02-27T12:39:40Z</time>
      </trkpt>
      <trkpt lat="45.32188" lon="4.48442">
        <ele>1140.21</ele>
        <time>2022-02-27T12:39:41Z</time>
      </trkpt>
      <trkpt lat="45.32186" lon="4.48442">
        <ele>1141.3</ele>
        <time>2022-02-27T12:39:48Z</time>
      </trkpt>
      <trkpt lat="45.32177" lon="4.48432">
        <ele>1143.7</ele>
        <time>2022-02-27T12:40:02Z</time>
      </trkpt>
      <trkpt lat="45.32172" lon="4.4843">
        <ele>1144.5</ele>
        <time>2022-02-27T12:40:07Z</time>
      </trkpt>
      <trkpt lat="45.32169" lon="4.4843">
        <ele>1145.57</ele>
        <time>2022-02-27T12:40:12Z</time>
      </trkpt>
      <trkpt lat="45.32017" lon="4.48348">
        <ele>1170.95</ele>
        <time>2022-02-27T12:43:42Z</time>
      </trkpt>
      <trkpt lat="45.32008" lon="4.48348">
        <ele>1172.37</ele>
        <time>2022-02-27T12:43:52Z</time>
      </trkpt>
      <trkpt lat="45.32005" lon="4.48347">
        <ele>1173.05</ele>
        <time>2022-02-27T12:43:57Z</time>
      </trkpt>
      <trkpt lat="45.31915" lon="4.48297">
        <ele>1190.59</ele>
        <time>2022-02-27T12:46:03Z</time>
      </trkpt>
      <trkpt lat="45.31912" lon="4.48294">
        <ele>1191.37</ele>
        <time>2022-02-27T12:46:08Z</time>
      </trkpt>
      <trkpt lat="45.31907" lon="4.48291">
        <ele>1192.49</ele>
        <time>2022-02-27T12:46:16Z</time>
      </trkpt>
      <trkpt lat="45.31905" lon="4.48289">
        <ele>1193.91</ele>
        <time>2022-02-27T12:46:23Z</time>
      </trkpt>
      <trkpt lat="45.31823" lon="4.48247">
        <ele>1209.24</ele>
        <time>2022-02-27T12:48:31Z</time>
      </trkpt>
      <trkpt lat="45.31821" lon="4.48246">
        <ele>1210.2</ele>
        <time>2022-02-27T12:48:36Z</time>
      </trkpt>
      <trkpt lat="45.31799" lon="4.48195">
        <ele>1215.88</ele>
        <time>2022-02-27T12:49:26Z</time>
      </trkpt>
      <trkpt lat="45.31797" lon="4.48189">
        <ele>1216.35</ele>
        <time>2022-02-27T12:49:31Z</time>
      </trkpt>
      <trkpt lat="45.31737" lon="4.48129">
        <ele>1217.18</ele>
        <time>2022-02-27T12:55:35Z</time>
      </trkpt>
      <trkpt lat="45.31738" lon="4.48128">
        <ele>1217.12</ele>
        <time>2022-02-27T12:55:39Z</time>
      </trkpt>
      <trkpt lat="45.3144" lon="4.47853">
        <ele>1194.59</ele>
        <time>2022-02-27T13:02:46Z</time>
      </trkpt>
      <trkpt lat="45.31436" lon="4.47846">
        <ele>1194.49</ele>
        <time>2022-02-27T13:02:55Z</time>
      </trkpt>
      <trkpt lat="45.31436" lon="4.47845">
        <ele>1194.46</ele>
        <time>2022-02-27T13:02:59Z</time>
      </trkpt>
      <trkpt lat="45.31179" lon="4.4776">
        <ele>1192.01</ele>
        <time>2022-02-27T13:07:34Z</time>
      </trkpt>
      <trkpt lat="45.31176" lon="4.47759">
        <ele>1191.96</ele>
        <time>2022-02-27T13:07:36Z</time>
      </trkpt>
      <trkpt lat="45.31163" lon="4.47751">
        <ele>1191.55</ele>
        <time>2022-02-27T13:07:48Z</time>
      </trkpt>
      <trkpt lat="45.31153" lon="4.47746">
        <ele>1191.54</ele>
        <time>2022-02-27T13:07:57Z</time>
      </trkpt>
      <trkpt lat="45.31143" lon="4.47743">
        <ele>1191.44</ele>
        <time>2022-02-27T13:08:08Z</time>
      </trkpt>
      <trkpt lat="45.31136" lon="4.47744">
        <ele>1191.34</ele>
        <time>2022-02-27T13:08:15Z</time>
      </trkpt>
      <trkpt lat="45.3113" lon="4.47742">
        <ele>1191.06</ele>
        <time>2022-02-27T13:08:24Z</time>
      </trkpt>
      <trkpt lat="45.31011" lon="4.47734">
        <ele>1190.86</ele>
        <time>2022-02-27T13:10:22Z</time>
      </trkpt>
      <trkpt lat="45.30999" lon="4.47736">
        <ele>1190.96</ele>
        <time>2022-02-27T13:10:33Z</time>
      </trkpt>
      <trkpt lat="45.30992" lon="4.4774">
        <ele>1190.99</ele>
        <time>2022-02-27T13:10:41Z</time>
      </trkpt>
      <trkpt lat="45.30991" lon="4.47741">
        <ele>1191</ele>
        <time>2022-02-27T13:10:42Z</time>
      </trkpt>
      <trkpt lat="45.30978" lon="4.47743">
        <ele>1191.48</ele>
        <time>2022-02-27T13:10:54Z</time>
      </trkpt>
      <trkpt lat="45.30974" lon="4.47743">
        <ele>1191.64</ele>
        <time>2022-02-27T13:10:59Z</time>
      </trkpt>
      <trkpt lat="45.30962" lon="4.47746">
        <ele>1192.17</ele>
        <time>2022-02-27T13:11:11Z</time>
      </trkpt>
      <trkpt lat="45.30956" lon="4.47747">
        <ele>1192.6</ele>
        <time>2022-02-27T13:11:16Z</time>
      </trkpt>
      <trkpt lat="45.30808" lon="4.47673">
        <ele>1186.22</ele>
        <time>2022-02-27T13:13:47Z</time>
      </trkpt>
      <trkpt lat="45.30807" lon="4.47672">
        <ele>1186.22</ele>
        <time>2022-02-27T13:13:48Z</time>
      </trkpt>
      <trkpt lat="45.30806" lon="4.47672">
        <ele>1186.22</ele>
        <time>2022-02-27T13:13:49Z</time>
      </trkpt>
      <trkpt lat="45.30794" lon="4.47669">
        <ele>1185.72</ele>
        <time>2022-02-27T13:13:59Z</time>
      </trkpt>
      <trkpt lat="45.30781" lon="4.47666">
        <ele>1185.46</ele>
        <time>2022-02-27T13:14:10Z</time>
      </trkpt>
      <trkpt lat="45.30771" lon="4.47664">
        <ele>1184.66</ele>
        <time>2022-02-27T13:14:19Z</time>
      </trkpt>
      <trkpt lat="45.30762" lon="4.47662">
        <ele>1183.6</ele>
        <time>2022-02-27T13:14:26Z</time>
      </trkpt>
      <trkpt lat="45.30753" lon="4.47659">
        <ele>1182.66</ele>
        <time>2022-02-27T13:14:34Z</time>
      </trkpt>
      <trkpt lat="45.30745" lon="4.47658">
        <ele>1181.72</ele>
        <time>2022-02-27T13:14:42Z</time>
      </trkpt>
      <trkpt lat="45.30743" lon="4.47658">
        <ele>1180.99</ele>
        <time>2022-02-27T13:14:46Z</time>
      </trkpt>
      <trkpt lat="45.30694" lon="4.47598">
        <ele>1177.66</ele>
        <time>2022-02-27T13:16:38Z</time>
      </trkpt>
      <trkpt lat="45.30693" lon="4.47572">
        <ele>1177.97</ele>
        <time>2022-02-27T13:16:53Z</time>
      </trkpt>
      <trkpt lat="45.30693" lon="4.47542">
        <ele>1178.36</ele>
        <time>2022-02-27T13:17:11Z</time>
      </trkpt>
      <trkpt lat="45.30694" lon="4.47524">
        <ele>1179</ele>
        <time>2022-02-27T13:17:23Z</time>
      </trkpt>
      <trkpt lat="45.30697" lon="4.47501">
        <ele>1179.94</ele>
        <time>2022-02-27T13:17:38Z</time>
      </trkpt>
      <trkpt lat="45.30701" lon="4.47478">
        <ele>1180.78</ele>
        <time>2022-02-27T13:17:52Z</time>
      </trkpt>
      <trkpt lat="45.3071" lon="4.47456">
        <ele>1181.81</ele>
        <time>2022-02-27T13:18:09Z</time>
      </trkpt>
      <trkpt lat="45.30718" lon="4.47438">
        <ele>1182.96</ele>
        <time>2022-02-27T13:18:22Z</time>
      </trkpt>
      <trkpt lat="45.30727" lon="4.47414">
        <ele>1183.99</ele>
        <time>2022-02-27T13:18:38Z</time>
      </trkpt>
      <trkpt lat="45.30736" lon="4.47395">
        <ele>1184.51</ele>
        <time>2022-02-27T13:18:52Z</time>
      </trkpt>
      <trkpt lat="45.3074" lon="4.47381">
        <ele>1184.71</ele>
        <time>2022-02-27T13:19:01Z</time>
      </trkpt>
      <trkpt lat="45.30746" lon="4.47371">
        <ele>1184.96</ele>
        <time>2022-02-27T13:19:10Z</time>
      </trkpt>
      <trkpt lat="45.30754" lon="4.4735">
        <ele>1185.49</ele>
        <time>2022-02-27T13:19:23Z</time>
      </trkpt>
      <trkpt lat="45.30766" lon="4.47332">
        <ele>1185.89</ele>
        <time>2022-02-27T13:19:37Z</time>
      </trkpt>
      <trkpt lat="45.30778" lon="4.47316">
        <ele>1186.27</ele>
        <time>2022-02-27T13:19:54Z</time>
      </trkpt>
      <trkpt lat="45.30788" lon="4.47307">
        <ele>1186.87</ele>
        <time>2022-02-27T13:20:05Z</time>
      </trkpt>
      <trkpt lat="45.30814" lon="4.47264">
        <ele>1187.84</ele>
        <time>2022-02-27T13:20:39Z</time>
      </trkpt>
      <trkpt lat="45.30826" lon="4.47247">
        <ele>1188.12</ele>
        <time>2022-02-27T13:20:53Z</time>
      </trkpt>
      <trkpt lat="45.30838" lon="4.4723">
        <ele>1188.03</ele>
        <time>2022-02-27T13:21:09Z</time>
      </trkpt>
      <trkpt lat="45.30843" lon="4.47224">
        <ele>1187.76</ele>
        <time>2022-02-27T13:21:16Z</time>
      </trkpt>
      <trkpt lat="45.30857" lon="4.47201">
        <ele>1187.61</ele>
        <time>2022-02-27T13:21:31Z</time>
      </trkpt>
      <trkpt lat="45.30871" lon="4.47187">
        <ele>1187.5</ele>
        <time>2022-02-27T13:21:45Z</time>
      </trkpt>
      <trkpt lat="45.30885" lon="4.47172">
        <ele>1187.48</ele>
        <time>2022-02-27T13:21:59Z</time>
      </trkpt>
      <trkpt lat="45.30893" lon="4.47163">
        <ele>1187.48</ele>
        <time>2022-02-27T13:22:07Z</time>
      </trkpt>
      <trkpt lat="45.30902" lon="4.47156">
        <ele>1187.48</ele>
        <time>2022-02-27T13:22:16Z</time>
      </trkpt>
      <trkpt lat="45.30914" lon="4.47149">
        <ele>1187.57</ele>
        <time>2022-02-27T13:22:27Z</time>
      </trkpt>
      <trkpt lat="45.30925" lon="4.47139">
        <ele>1187.87</ele>
        <time>2022-02-27T13:22:37Z</time>
      </trkpt>
      <trkpt lat="45.30933" lon="4.47132">
        <ele>1188.11</ele>
        <time>2022-02-27T13:22:45Z</time>
      </trkpt>
      <trkpt lat="45.30943" lon="4.47128">
        <ele>1188.34</ele>
        <time>2022-02-27T13:22:55Z</time>
      </trkpt>
      <trkpt lat="45.3095" lon="4.47129">
        <ele>1188.22</ele>
        <time>2022-02-27T13:23:03Z</time>
      </trkpt>
      <trkpt lat="45.3095" lon="4.4713">
        <ele>1188.14</ele>
        <time>2022-02-27T13:23:06Z</time>
      </trkpt>
      <trkpt lat="45.3098" lon="4.47098">
        <ele>1187.65</ele>
        <time>2022-02-27T13:23:46Z</time>
      </trkpt>
      <trkpt lat="45.30992" lon="4.47077">
        <ele>1187.53</ele>
        <time>2022-02-27T13:24:00Z</time>
      </trkpt>
      <trkpt lat="45.30993" lon="4.47077">
        <ele>1187.48</ele>
        <time>2022-02-27T13:24:01Z</time>
      </trkpt>
      <trkpt lat="45.3105" lon="4.47071">
        <ele>1188.24</ele>
        <time>2022-02-27T13:25:04Z</time>
      </trkpt>
      <trkpt lat="45.31055" lon="4.47073">
        <ele>1188.26</ele>
        <time>2022-02-27T13:25:08Z</time>
      </trkpt>
      <trkpt lat="45.31067" lon="4.47072">
        <ele>1188.55</ele>
        <time>2022-02-27T13:25:19Z</time>
      </trkpt>
      <trkpt lat="45.31077" lon="4.47074">
        <ele>1189.15</ele>
        <time>2022-02-27T13:25:29Z</time>
      </trkpt>
      <trkpt lat="45.31088" lon="4.47073">
        <ele>1189.27</ele>
        <time>2022-02-27T13:25:38Z</time>
      </trkpt>
      <trkpt lat="45.31097" lon="4.47074">
        <ele>1189.58</ele>
        <time>2022-02-27T13:25:47Z</time>
      </trkpt>
      <trkpt lat="45.31112" lon="4.4707">
        <ele>1189.95</ele>
        <time>2022-02-27T13:26:03Z</time>
      </trkpt>
      <trkpt lat="45.31122" lon="4.47069">
        <ele>1190.12</ele>
        <time>2022-02-27T13:26:13Z</time>
      </trkpt>
      <trkpt lat="45.31132" lon="4.47068">
        <ele>1190.57</ele>
        <time>2022-02-27T13:26:22Z</time>
      </trkpt>
      <trkpt lat="45.31148" lon="4.47067">
        <ele>1191.2</ele>
        <time>2022-02-27T13:26:36Z</time>
      </trkpt>
      <trkpt lat="45.31158" lon="4.47058">
        <ele>1191.53</ele>
        <time>2022-02-27T13:26:45Z</time>
      </trkpt>
      <trkpt lat="45.31163" lon="4.47058">
        <ele>1191.77</ele>
        <time>2022-02-27T13:26:50Z</time>
      </trkpt>
      <trkpt lat="45.31172" lon="4.47055">
        <ele>1192.01</ele>
        <time>2022-02-27T13:26:59Z</time>
      </trkpt>
      <trkpt lat="45.31178" lon="4.47052">
        <ele>1192.59</ele>
        <time>2022-02-27T13:27:07Z</time>
      </trkpt>
      <trkpt lat="45.31183" lon="4.47052">
        <ele>1193.19</ele>
        <time>2022-02-27T13:27:14Z</time>
      </trkpt>
      <trkpt lat="45.31573" lon="4.47063">
        <ele>1191.09</ele>
        <time>2022-02-27T13:33:51Z</time>
      </trkpt>
      <trkpt lat="45.3158" lon="4.47058">
        <ele>1190.67</ele>
        <time>2022-02-27T13:33:58Z</time>
      </trkpt>
      <trkpt lat="45.31588" lon="4.47054">
        <ele>1190.03</ele>
        <time>2022-02-27T13:34:05Z</time>
      </trkpt>
      <trkpt lat="45.31595" lon="4.47047">
        <ele>1189.39</ele>
        <time>2022-02-27T13:34:13Z</time>
      </trkpt>
      <trkpt lat="45.31607" lon="4.47038">
        <ele>1188.2</ele>
        <time>2022-02-27T13:34:24Z</time>
      </trkpt>
      <trkpt lat="45.31616" lon="4.47029">
        <ele>1187.08</ele>
        <time>2022-02-27T13:34:36Z</time>
      </trkpt>
      <trkpt lat="45.31631" lon="4.47021">
        <ele>1185.27</ele>
        <time>2022-02-27T13:34:52Z</time>
      </trkpt>
      <trkpt lat="45.31645" lon="4.4701">
        <ele>1184.34</ele>
        <time>2022-02-27T13:35:04Z</time>
      </trkpt>
      <trkpt lat="45.31658" lon="4.46991">
        <ele>1182.1</ele>
        <time>2022-02-27T13:35:18Z</time>
      </trkpt>
      <trkpt lat="45.31658" lon="4.46971">
        <ele>1180.4</ele>
        <time>2022-02-27T13:35:31Z</time>
      </trkpt>
      <trkpt lat="45.31659" lon="4.4695">
        <ele>1178.56</ele>
        <time>2022-02-27T13:35:45Z</time>
      </trkpt>
      <trkpt lat="45.31663" lon="4.46932">
        <ele>1176.36</ele>
        <time>2022-02-27T13:35:57Z</time>
      </trkpt>
      <trkpt lat="45.31667" lon="4.46917">
        <ele>1174.57</ele>
        <time>2022-02-27T13:36:09Z</time>
      </trkpt>
      <trkpt lat="45.31668" lon="4.46916">
        <ele>1174.02</ele>
        <time>2022-02-27T13:36:11Z</time>
      </trkpt>
      <trkpt lat="45.31673" lon="4.46858">
        <ele>1167.55</ele>
        <time>2022-02-27T13:36:56Z</time>
      </trkpt>
      <trkpt lat="45.31668" lon="4.46846">
        <ele>1165.8</ele>
        <time>2022-02-27T13:37:06Z</time>
      </trkpt>
      <trkpt lat="45.31669" lon="4.46844">
        <ele>1165.32</ele>
        <time>2022-02-27T13:37:09Z</time>
      </trkpt>
      <trkpt lat="45.31679" lon="4.46734">
        <ele>1156.11</ele>
        <time>2022-02-27T13:38:40Z</time>
      </trkpt>
      <trkpt lat="45.31679" lon="4.46722">
        <ele>1155.24</ele>
        <time>2022-02-27T13:38:49Z</time>
      </trkpt>
      <trkpt lat="45.31678" lon="4.46721">
        <ele>1154.96</ele>
        <time>2022-02-27T13:38:51Z</time>
      </trkpt>
      <trkpt lat="45.31662" lon="4.4666">
        <ele>1152.18</ele>
        <time>2022-02-27T13:41:48Z</time>
      </trkpt>
      <trkpt lat="45.3166" lon="4.46645">
        <ele>1151.85</ele>
        <time>2022-02-27T13:42:01Z</time>
      </trkpt>
      <trkpt lat="45.31659" lon="4.46642">
        <ele>1151.74</ele>
        <time>2022-02-27T13:42:03Z</time>
      </trkpt>
      <trkpt lat="45.31655" lon="4.46635">
        <ele>1151.32</ele>
        <time>2022-02-27T13:42:13Z</time>
      </trkpt>
      <trkpt lat="45.3165" lon="4.46623">
        <ele>1151.27</ele>
        <time>2022-02-27T13:42:23Z</time>
      </trkpt>
      <trkpt lat="45.31649" lon="4.46611">
        <ele>1151.45</ele>
        <time>2022-02-27T13:42:32Z</time>
      </trkpt>
      <trkpt lat="45.31648" lon="4.46607">
        <ele>1151.42</ele>
        <time>2022-02-27T13:42:37Z</time>
      </trkpt>
      <trkpt lat="45.31641" lon="4.46537">
        <ele>1151.02</ele>
        <time>2022-02-27T13:43:30Z</time>
      </trkpt>
      <trkpt lat="45.31653" lon="4.46534">
        <ele>1150.6</ele>
        <time>2022-02-27T13:43:45Z</time>
      </trkpt>
      <trkpt lat="45.31656" lon="4.46533">
        <ele>1150.49</ele>
        <time>2022-02-27T13:43:49Z</time>
      </trkpt>
      <trkpt lat="45.31702" lon="4.46531">
        <ele>1149.13</ele>
        <time>2022-02-27T13:44:25Z</time>
      </trkpt>
      <trkpt lat="45.31706" lon="4.46531">
        <ele>1149.03</ele>
        <time>2022-02-27T13:44:27Z</time>
      </trkpt>
      <trkpt lat="45.31721" lon="4.46532">
        <ele>1148.38</ele>
        <time>2022-02-27T13:44:39Z</time>
      </trkpt>
      <trkpt lat="45.31736" lon="4.46531">
        <ele>1147.8</ele>
        <time>2022-02-27T13:44:53Z</time>
      </trkpt>
      <trkpt lat="45.31739" lon="4.4653">
        <ele>1147.66</ele>
        <time>2022-02-27T13:44:56Z</time>
      </trkpt>
      <trkpt lat="45.31759" lon="4.46527">
        <ele>1146.51</ele>
        <time>2022-02-27T13:45:11Z</time>
      </trkpt>
      <trkpt lat="45.31771" lon="4.46523">
        <ele>1146.08</ele>
        <time>2022-02-27T13:45:25Z</time>
      </trkpt>
      <trkpt lat="45.31773" lon="4.46523">
        <ele>1145.98</ele>
        <time>2022-02-27T13:45:28Z</time>
      </trkpt>
      <trkpt lat="45.31914" lon="4.46498">
        <ele>1146.34</ele>
        <time>2022-02-27T13:47:30Z</time>
      </trkpt>
      <trkpt lat="45.31925" lon="4.46489">
        <ele>1146.26</ele>
        <time>2022-02-27T13:47:42Z</time>
      </trkpt>
      <trkpt lat="45.31937" lon="4.46484">
        <ele>1146.25</ele>
        <time>2022-02-27T13:47:51Z</time>
      </trkpt>
      <trkpt lat="45.31941" lon="4.46482">
        <ele>1146.51</ele>
        <time>2022-02-27T13:47:58Z</time>
      </trkpt>
      <trkpt lat="45.31979" lon="4.46445">
        <ele>1145.67</ele>
        <time>2022-02-27T13:48:52Z</time>
      </trkpt>
      <trkpt lat="45.31995" lon="4.46426">
        <ele>1145.03</ele>
        <time>2022-02-27T13:49:08Z</time>
      </trkpt>
      <trkpt lat="45.32005" lon="4.46407">
        <ele>1144.29</ele>
        <time>2022-02-27T13:49:21Z</time>
      </trkpt>
      <trkpt lat="45.32017" lon="4.4639">
        <ele>1143.96</ele>
        <time>2022-02-27T13:49:34Z</time>
      </trkpt>
      <trkpt lat="45.3203" lon="4.46367">
        <ele>1143.37</ele>
        <time>2022-02-27T13:49:50Z</time>
      </trkpt>
      <trkpt lat="45.32045" lon="4.4635">
        <ele>1142.16</ele>
        <time>2022-02-27T13:50:06Z</time>
      </trkpt>
      <trkpt lat="45.32058" lon="4.46337">
        <ele>1141.83</ele>
        <time>2022-02-27T13:50:17Z</time>
      </trkpt>
      <trkpt lat="45.32059" lon="4.46328">
        <ele>1141.73</ele>
        <time>2022-02-27T13:50:25Z</time>
      </trkpt>
      <trkpt lat="45.3207" lon="4.46313">
        <ele>1141.47</ele>
        <time>2022-02-27T13:50:37Z</time>
      </trkpt>
      <trkpt lat="45.32077" lon="4.46302">
        <ele>1141.23</ele>
        <time>2022-02-27T13:50:45Z</time>
      </trkpt>
      <trkpt lat="45.32087" lon="4.46292">
        <ele>1141.02</ele>
        <time>2022-02-27T13:50:54Z</time>
      </trkpt>
      <trkpt lat="45.32098" lon="4.46278">
        <ele>1140.91</ele>
        <time>2022-02-27T13:51:06Z</time>
      </trkpt>
      <trkpt lat="45.32105" lon="4.46268">
        <ele>1140.51</ele>
        <time>2022-02-27T13:51:14Z</time>
      </trkpt>
      <trkpt lat="45.32115" lon="4.46259">
        <ele>1140.2</ele>
        <time>2022-02-27T13:51:23Z</time>
      </trkpt>
      <trkpt lat="45.32116" lon="4.4625">
        <ele>1140.13</ele>
        <time>2022-02-27T13:51:33Z</time>
      </trkpt>
      <trkpt lat="45.32116" lon="4.46249">
        <ele>1140.15</ele>
        <time>2022-02-27T13:51:35Z</time>
      </trkpt>
      <trkpt lat="45.32152" lon="4.46221">
        <ele>1140.07</ele>
        <time>2022-02-27T13:52:09Z</time>
      </trkpt>
      <trkpt lat="45.32166" lon="4.46205">
        <ele>1139.36</ele>
        <time>2022-02-27T13:52:25Z</time>
      </trkpt>
      <trkpt lat="45.32181" lon="4.46189">
        <ele>1138.69</ele>
        <time>2022-02-27T13:52:41Z</time>
      </trkpt>
      <trkpt lat="45.32199" lon="4.46172">
        <ele>1137.73</ele>
        <time>2022-02-27T13:52:57Z</time>
      </trkpt>
      <trkpt lat="45.32222" lon="4.46154">
        <ele>1136.79</ele>
        <time>2022-02-27T13:53:18Z</time>
      </trkpt>
      <trkpt lat="45.32233" lon="4.46142">
        <ele>1135.89</ele>
        <time>2022-02-27T13:53:30Z</time>
      </trkpt>
      <trkpt lat="45.32246" lon="4.46129">
        <ele>1134.36</ele>
        <time>2022-02-27T13:53:45Z</time>
      </trkpt>
      <trkpt lat="45.32263" lon="4.46111">
        <ele>1132.95</ele>
        <time>2022-02-27T13:54:02Z</time>
      </trkpt>
      <trkpt lat="45.32279" lon="4.46099">
        <ele>1132.11</ele>
        <time>2022-02-27T13:54:16Z</time>
      </trkpt>
      <trkpt lat="45.32297" lon="4.46084">
        <ele>1131.51</ele>
        <time>2022-02-27T13:54:33Z</time>
      </trkpt>
      <trkpt lat="45.32308" lon="4.46076">
        <ele>1131.34</ele>
        <time>2022-02-27T13:54:43Z</time>
      </trkpt>
      <trkpt lat="45.32314" lon="4.46072">
        <ele>1131.22</ele>
        <time>2022-02-27T13:54:49Z</time>
      </trkpt>
      <trkpt lat="45.32317" lon="4.4607">
        <ele>1131.18</ele>
        <time>2022-02-27T13:54:52Z</time>
      </trkpt>
      <trkpt lat="45.32319" lon="4.46068">
        <ele>1131.18</ele>
        <time>2022-02-27T13:54:54Z</time>
      </trkpt>
      <trkpt lat="45.32332" lon="4.46052">
        <ele>1132.09</ele>
        <time>2022-02-27T13:55:14Z</time>
      </trkpt>
      <trkpt lat="45.3234" lon="4.46043">
        <ele>1132.13</ele>
        <time>2022-02-27T13:55:24Z</time>
      </trkpt>
      <trkpt lat="45.32343" lon="4.46035">
        <ele>1131.87</ele>
        <time>2022-02-27T13:55:33Z</time>
      </trkpt>
      <trkpt lat="45.32351" lon="4.46027">
        <ele>1131.4</ele>
        <time>2022-02-27T13:55:40Z</time>
      </trkpt>
      <trkpt lat="45.32352" lon="4.46022">
        <ele>1131.29</ele>
        <time>2022-02-27T13:55:46Z</time>
      </trkpt>
      <trkpt lat="45.32354" lon="4.46019">
        <ele>1131.18</ele>
        <time>2022-02-27T13:55:50Z</time>
      </trkpt>
      <trkpt lat="45.32407" lon="4.45914">
        <ele>1122.28</ele>
        <time>2022-02-27T13:58:23Z</time>
      </trkpt>
      <trkpt lat="45.32407" lon="4.45911">
        <ele>1121.67</ele>
        <time>2022-02-27T13:58:33Z</time>
      </trkpt>
      <trkpt lat="45.3241" lon="4.45907">
        <ele>1121.08</ele>
        <time>2022-02-27T13:58:39Z</time>
      </trkpt>
      <trkpt lat="45.32575" lon="4.45714">
        <ele>1081.83</ele>
        <time>2022-02-27T14:04:27Z</time>
      </trkpt>
      <trkpt lat="45.32577" lon="4.45719">
        <ele>1081.77</ele>
        <time>2022-02-27T14:04:30Z</time>
      </trkpt>
      <trkpt lat="45.32579" lon="4.45725">
        <ele>1081.74</ele>
        <time>2022-02-27T14:04:34Z</time>
      </trkpt>
      <trkpt lat="45.32581" lon="4.45731">
        <ele>1081.44</ele>
        <time>2022-02-27T14:04:40Z</time>
      </trkpt>
      <trkpt lat="45.32585" lon="4.45739">
        <ele>1080.71</ele>
        <time>2022-02-27T14:04:46Z</time>
      </trkpt>
      <trkpt lat="45.32586" lon="4.45742">
        <ele>1080.46</ele>
        <time>2022-02-27T14:04:48Z</time>
      </trkpt>
      <trkpt lat="45.32588" lon="4.45752">
        <ele>1078.99</ele>
        <time>2022-02-27T14:04:55Z</time>
      </trkpt>
      <trkpt lat="45.32595" lon="4.45762">
        <ele>1078.29</ele>
        <time>2022-02-27T14:05:04Z</time>
      </trkpt>
      <trkpt lat="45.32609" lon="4.45767">
        <ele>1077.21</ele>
        <time>2022-02-27T14:05:11Z</time>
      </trkpt>
      <trkpt lat="45.32614" lon="4.45766">
        <ele>1076.31</ele>
        <time>2022-02-27T14:05:17Z</time>
      </trkpt>
      <trkpt lat="45.32627" lon="4.45761">
        <ele>1075.36</ele>
        <time>2022-02-27T14:05:26Z</time>
      </trkpt>
      <trkpt lat="45.32627" lon="4.4576">
        <ele>1075.1</ele>
        <time>2022-02-27T14:05:30Z</time>
      </trkpt>
      <trkpt lat="45.32666" lon="4.45769">
        <ele>1072.04</ele>
        <time>2022-02-27T14:06:21Z</time>
      </trkpt>
      <trkpt lat="45.32672" lon="4.45774">
        <ele>1070.6</ele>
        <time>2022-02-27T14:06:29Z</time>
      </trkpt>
      <trkpt lat="45.32678" lon="4.45783">
        <ele>1069.37</ele>
        <time>2022-02-27T14:06:39Z</time>
      </trkpt>
      <trkpt lat="45.32683" lon="4.45788">
        <ele>1068.53</ele>
        <time>2022-02-27T14:06:45Z</time>
      </trkpt>
      <trkpt lat="45.32682" lon="4.45945">
        <ele>1079.14</ele>
        <time>2022-02-27T14:11:29Z</time>
      </trkpt>
      <trkpt lat="45.32687" lon="4.4594">
        <ele>1078.66</ele>
        <time>2022-02-27T14:11:37Z</time>
      </trkpt>
      <trkpt lat="45.32688" lon="4.45939">
        <ele>1078.61</ele>
        <time>2022-02-27T14:11:38Z</time>
      </trkpt>
      <trkpt lat="45.32691" lon="4.45932">
        <ele>1078.39</ele>
        <time>2022-02-27T14:11:42Z</time>
      </trkpt>
      <trkpt lat="45.32696" lon="4.45927">
        <ele>1078.31</ele>
        <time>2022-02-27T14:11:46Z</time>
      </trkpt>
      <trkpt lat="45.32705" lon="4.45917">
        <ele>1077.81</ele>
        <time>2022-02-27T14:11:55Z</time>
      </trkpt>
      <trkpt lat="45.32708" lon="4.45913">
        <ele>1077.72</ele>
        <time>2022-02-27T14:11:58Z</time>
      </trkpt>
      <trkpt lat="45.32714" lon="4.45904">
        <ele>1077.33</ele>
        <time>2022-02-27T14:12:05Z</time>
      </trkpt>
      <trkpt lat="45.32721" lon="4.4589">
        <ele>1076.1</ele>
        <time>2022-02-27T14:12:13Z</time>
      </trkpt>
      <trkpt lat="45.32724" lon="4.45886">
        <ele>1075.64</ele>
        <time>2022-02-27T14:12:17Z</time>
      </trkpt>
      <trkpt lat="45.32726" lon="4.45881">
        <ele>1075.31</ele>
        <time>2022-02-27T14:12:21Z</time>
      </trkpt>
      <trkpt lat="45.32728" lon="4.45873">
        <ele>1074.91</ele>
        <time>2022-02-27T14:12:26Z</time>
      </trkpt>
      <trkpt lat="45.32731" lon="4.45859">
        <ele>1074.39</ele>
        <time>2022-02-27T14:12:33Z</time>
      </trkpt>
      <trkpt lat="45.32735" lon="4.45846">
        <ele>1073.87</ele>
        <time>2022-02-27T14:12:40Z</time>
      </trkpt>
      <trkpt lat="45.32736" lon="4.45846">
        <ele>1073.34</ele>
        <time>2022-02-27T14:12:44Z</time>
      </trkpt>
      <trkpt lat="45.32737" lon="4.45841">
        <ele>1073.13</ele>
        <time>2022-02-27T14:12:47Z</time>
      </trkpt>
      <trkpt lat="45.32741" lon="4.45828">
        <ele>1072.78</ele>
        <time>2022-02-27T14:12:55Z</time>
      </trkpt>
      <trkpt lat="45.32741" lon="4.45827">
        <ele>1072.68</ele>
        <time>2022-02-27T14:12:56Z</time>
      </trkpt>
      <trkpt lat="45.32744" lon="4.45814">
        <ele>1071.97</ele>
        <time>2022-02-27T14:13:03Z</time>
      </trkpt>
      <trkpt lat="45.32744" lon="4.45811">
        <ele>1071.59</ele>
        <time>2022-02-27T14:13:05Z</time>
      </trkpt>
      <trkpt lat="45.32747" lon="4.45797">
        <ele>1070.61</ele>
        <time>2022-02-27T14:13:13Z</time>
      </trkpt>
      <trkpt lat="45.32748" lon="4.45795">
        <ele>1070.49</ele>
        <time>2022-02-27T14:13:14Z</time>
      </trkpt>
      <trkpt lat="45.32749" lon="4.45782">
        <ele>1069.42</ele>
        <time>2022-02-27T14:13:21Z</time>
      </trkpt>
      <trkpt lat="45.32752" lon="4.45766">
        <ele>1068.23</ele>
        <time>2022-02-27T14:13:31Z</time>
      </trkpt>
      <trkpt lat="45.32754" lon="4.45753">
        <ele>1066.41</ele>
        <time>2022-02-27T14:13:40Z</time>
      </trkpt>
      <trkpt lat="45.32755" lon="4.45739">
        <ele>1065.35</ele>
        <time>2022-02-27T14:13:48Z</time>
      </trkpt>
      <trkpt lat="45.32761" lon="4.45721">
        <ele>1063.47</ele>
        <time>2022-02-27T14:13:59Z</time>
      </trkpt>
      <trkpt lat="45.32769" lon="4.45705">
        <ele>1061.95</ele>
        <time>2022-02-27T14:14:10Z</time>
      </trkpt>
      <trkpt lat="45.32776" lon="4.45691">
        <ele>1060.66</ele>
        <time>2022-02-27T14:14:20Z</time>
      </trkpt>
      <trkpt lat="45.32783" lon="4.45676">
        <ele>1058.05</ele>
        <time>2022-02-27T14:14:31Z</time>
      </trkpt>
      <trkpt lat="45.32787" lon="4.4567">
        <ele>1056.56</ele>
        <time>2022-02-27T14:14:39Z</time>
      </trkpt>
      <trkpt lat="45.32787" lon="4.45669">
        <ele>1056.51</ele>
        <time>2022-02-27T14:14:40Z</time>
      </trkpt>
      <trkpt lat="45.32792" lon="4.45661">
        <ele>1055.72</ele>
        <time>2022-02-27T14:14:47Z</time>
      </trkpt>
      <trkpt lat="45.32802" lon="4.4566">
        <ele>1054.77</ele>
        <time>2022-02-27T14:14:54Z</time>
      </trkpt>
      <trkpt lat="45.32803" lon="4.45661">
        <ele>1054.41</ele>
        <time>2022-02-27T14:14:59Z</time>
      </trkpt>
      <trkpt lat="45.32807" lon="4.45663">
        <ele>1054.11</ele>
        <time>2022-02-27T14:15:04Z</time>
      </trkpt>
      <trkpt lat="45.32813" lon="4.45668">
        <ele>1053.65</ele>
        <time>2022-02-27T14:15:11Z</time>
      </trkpt>
      <trkpt lat="45.32816" lon="4.4567">
        <ele>1053.62</ele>
        <time>2022-02-27T14:15:14Z</time>
      </trkpt>
      <trkpt lat="45.3282" lon="4.45677">
        <ele>1053.25</ele>
        <time>2022-02-27T14:15:20Z</time>
      </trkpt>
      <trkpt lat="45.32824" lon="4.45695">
        <ele>1053.41</ele>
        <time>2022-02-27T14:15:31Z</time>
      </trkpt>
      <trkpt lat="45.32825" lon="4.45703">
        <ele>1053.72</ele>
        <time>2022-02-27T14:15:36Z</time>
      </trkpt>
      <trkpt lat="45.32828" lon="4.45718">
        <ele>1053.86</ele>
        <time>2022-02-27T14:15:45Z</time>
      </trkpt>
      <trkpt lat="45.3283" lon="4.45735">
        <ele>1053.8</ele>
        <time>2022-02-27T14:15:55Z</time>
      </trkpt>
      <trkpt lat="45.32831" lon="4.45748">
        <ele>1053.77</ele>
        <time>2022-02-27T14:16:05Z</time>
      </trkpt>
      <trkpt lat="45.32831" lon="4.45761">
        <ele>1054.22</ele>
        <time>2022-02-27T14:16:13Z</time>
      </trkpt>
      <trkpt lat="45.32833" lon="4.45776">
        <ele>1054.93</ele>
        <time>2022-02-27T14:16:24Z</time>
      </trkpt>
      <trkpt lat="45.32835" lon="4.4579">
        <ele>1055.88</ele>
        <time>2022-02-27T14:16:33Z</time>
      </trkpt>
      <trkpt lat="45.32835" lon="4.45805">
        <ele>1056.69</ele>
        <time>2022-02-27T14:16:44Z</time>
      </trkpt>
      <trkpt lat="45.32837" lon="4.45821">
        <ele>1057.44</ele>
        <time>2022-02-27T14:16:54Z</time>
      </trkpt>
      <trkpt lat="45.32839" lon="4.45835">
        <ele>1058.29</ele>
        <time>2022-02-27T14:17:04Z</time>
      </trkpt>
      <trkpt lat="45.32841" lon="4.45853">
        <ele>1058.97</ele>
        <time>2022-02-27T14:17:14Z</time>
      </trkpt>
      <trkpt lat="45.32845" lon="4.45869">
        <ele>1059.23</ele>
        <time>2022-02-27T14:17:23Z</time>
      </trkpt>
      <trkpt lat="45.32847" lon="4.45891">
        <ele>1058.95</ele>
        <time>2022-02-27T14:17:36Z</time>
      </trkpt>
      <trkpt lat="45.3285" lon="4.45908">
        <ele>1058.28</ele>
        <time>2022-02-27T14:17:46Z</time>
      </trkpt>
      <trkpt lat="45.32853" lon="4.45927">
        <ele>1057.09</ele>
        <time>2022-02-27T14:17:57Z</time>
      </trkpt>
      <trkpt lat="45.32858" lon="4.45946">
        <ele>1056.27</ele>
        <time>2022-02-27T14:18:06Z</time>
      </trkpt>
      <trkpt lat="45.32851" lon="4.45962">
        <ele>1055.66</ele>
        <time>2022-02-27T14:18:16Z</time>
      </trkpt>
      <trkpt lat="45.32841" lon="4.45979">
        <ele>1055.12</ele>
        <time>2022-02-27T14:18:28Z</time>
      </trkpt>
      <trkpt lat="45.32832" lon="4.4599">
        <ele>1054.84</ele>
        <time>2022-02-27T14:18:38Z</time>
      </trkpt>
      <trkpt lat="45.32824" lon="4.46">
        <ele>1054.37</ele>
        <time>2022-02-27T14:18:48Z</time>
      </trkpt>
      <trkpt lat="45.32815" lon="4.46008">
        <ele>1053.73</ele>
        <time>2022-02-27T14:18:57Z</time>
      </trkpt>
      <trkpt lat="45.32807" lon="4.46016">
        <ele>1052.25</ele>
        <time>2022-02-27T14:19:07Z</time>
      </trkpt>
      <trkpt lat="45.32799" lon="4.46026">
        <ele>1050.83</ele>
        <time>2022-02-27T14:19:15Z</time>
      </trkpt>
      <trkpt lat="45.32791" lon="4.46034">
        <ele>1050.04</ele>
        <time>2022-02-27T14:19:26Z</time>
      </trkpt>
      <trkpt lat="45.32788" lon="4.46037">
        <ele>1049.55</ele>
        <time>2022-02-27T14:19:30Z</time>
      </trkpt>
      <trkpt lat="45.32755" lon="4.46076">
        <ele>1045.69</ele>
        <time>2022-02-27T14:20:04Z</time>
      </trkpt>
      <trkpt lat="45.32742" lon="4.461">
        <ele>1044.19</ele>
        <time>2022-02-27T14:20:22Z</time>
      </trkpt>
      <trkpt lat="45.32732" lon="4.4612">
        <ele>1042.1</ele>
        <time>2022-02-27T14:20:37Z</time>
      </trkpt>
      <trkpt lat="45.32727" lon="4.46134">
        <ele>1041.65</ele>
        <time>2022-02-27T14:20:46Z</time>
      </trkpt>
      <trkpt lat="45.32718" lon="4.46172">
        <ele>1041.33</ele>
        <time>2022-02-27T14:21:39Z</time>
      </trkpt>
      <trkpt lat="45.32718" lon="4.46176">
        <ele>1041.32</ele>
        <time>2022-02-27T14:21:41Z</time>
      </trkpt>
      <trkpt lat="45.32717" lon="4.46179">
        <ele>1041.29</ele>
        <time>2022-02-27T14:21:44Z</time>
      </trkpt>
      <trkpt lat="45.32714" lon="4.46197">
        <ele>1040.19</ele>
        <time>2022-02-27T14:21:54Z</time>
      </trkpt>
      <trkpt lat="45.32712" lon="4.46207">
        <ele>1039.29</ele>
        <time>2022-02-27T14:22:01Z</time>
      </trkpt>
      <trkpt lat="45.32707" lon="4.46224">
        <ele>1037.89</ele>
        <time>2022-02-27T14:22:10Z</time>
      </trkpt>
      <trkpt lat="45.32703" lon="4.46237">
        <ele>1036.36</ele>
        <time>2022-02-27T14:22:18Z</time>
      </trkpt>
      <trkpt lat="45.32702" lon="4.46252">
        <ele>1035.66</ele>
        <time>2022-02-27T14:22:26Z</time>
      </trkpt>
      <trkpt lat="45.32703" lon="4.46264">
        <ele>1034.97</ele>
        <time>2022-02-27T14:22:33Z</time>
      </trkpt>
      <trkpt lat="45.32703" lon="4.46266">
        <ele>1034.92</ele>
        <time>2022-02-27T14:22:34Z</time>
      </trkpt>
      <trkpt lat="45.32704" lon="4.46273">
        <ele>1034.73</ele>
        <time>2022-02-27T14:22:40Z</time>
      </trkpt>
      <trkpt lat="45.32715" lon="4.46288">
        <ele>1034.65</ele>
        <time>2022-02-27T14:22:54Z</time>
      </trkpt>
      <trkpt lat="45.32721" lon="4.46294">
        <ele>1034.97</ele>
        <time>2022-02-27T14:23:02Z</time>
      </trkpt>
      <trkpt lat="45.32724" lon="4.46296">
        <ele>1035.55</ele>
        <time>2022-02-27T14:23:06Z</time>
      </trkpt>
      <trkpt lat="45.32738" lon="4.46658">
        <ele>1070.26</ele>
        <time>2022-02-27T14:30:43Z</time>
      </trkpt>
      <trkpt lat="45.32734" lon="4.46665">
        <ele>1070.66</ele>
        <time>2022-02-27T14:30:50Z</time>
      </trkpt>
      <trkpt lat="45.32735" lon="4.46673">
        <ele>1070.92</ele>
        <time>2022-02-27T14:30:55Z</time>
      </trkpt>
      <trkpt lat="45.32734" lon="4.46683">
        <ele>1071.38</ele>
        <time>2022-02-27T14:31:04Z</time>
      </trkpt>
      <trkpt lat="45.32733" lon="4.4669">
        <ele>1071.61</ele>
        <time>2022-02-27T14:31:10Z</time>
      </trkpt>
      <trkpt lat="45.3273" lon="4.46702">
        <ele>1071.99</ele>
        <time>2022-02-27T14:31:19Z</time>
      </trkpt>
      <trkpt lat="45.32729" lon="4.46709">
        <ele>1072.33</ele>
        <time>2022-02-27T14:31:23Z</time>
      </trkpt>
      <trkpt lat="45.32733" lon="4.46727">
        <ele>1073.67</ele>
        <time>2022-02-27T14:31:33Z</time>
      </trkpt>
      <trkpt lat="45.32733" lon="4.46735">
        <ele>1074.16</ele>
        <time>2022-02-27T14:31:39Z</time>
      </trkpt>
      <trkpt lat="45.32734" lon="4.46738">
        <ele>1074.3</ele>
        <time>2022-02-27T14:31:41Z</time>
      </trkpt>
      <trkpt lat="45.32734" lon="4.46741">
        <ele>1074.55</ele>
        <time>2022-02-27T14:31:43Z</time>
      </trkpt>
      <trkpt lat="45.32737" lon="4.46759">
        <ele>1075.33</ele>
        <time>2022-02-27T14:31:52Z</time>
      </trkpt>
      <trkpt lat="45.32737" lon="4.46763">
        <ele>1075.89</ele>
        <time>2022-02-27T14:31:54Z</time>
      </trkpt>
      <trkpt lat="45.32749" lon="4.46984">
        <ele>1088.22</ele>
        <time>2022-02-27T14:34:05Z</time>
      </trkpt>
      <trkpt lat="45.3276" lon="4.47012">
        <ele>1087.31</ele>
        <time>2022-02-27T14:34:22Z</time>
      </trkpt>
      <trkpt lat="45.32768" lon="4.47026">
        <ele>1086.88</ele>
        <time>2022-02-27T14:34:32Z</time>
      </trkpt>
      <trkpt lat="45.32777" lon="4.47042">
        <ele>1087.16</ele>
        <time>2022-02-27T14:34:42Z</time>
      </trkpt>
      <trkpt lat="45.3278" lon="4.47048">
        <ele>1087.71</ele>
        <time>2022-02-27T14:34:48Z</time>
      </trkpt>
      <trkpt lat="45.32787" lon="4.47069">
        <ele>1088.72</ele>
        <time>2022-02-27T14:35:02Z</time>
      </trkpt>
      <trkpt lat="45.32789" lon="4.47071">
        <ele>1089.18</ele>
        <time>2022-02-27T14:35:06Z</time>
      </trkpt>
      <trkpt lat="45.32982" lon="4.47183">
        <ele>1085.67</ele>
        <time>2022-02-27T14:43:34Z</time>
      </trkpt>
      <trkpt lat="45.32981" lon="4.47178">
        <ele>1085.67</ele>
        <time>2022-02-27T14:43:38Z</time>
      </trkpt>
      <trkpt lat="45.32982" lon="4.47175">
        <ele>1085.67</ele>
        <time>2022-02-27T14:43:43Z</time>
      </trkpt>
      <trkpt lat="45.33021" lon="4.47147">
        <ele>1091.94</ele>
        <time>2022-02-27T14:44:40Z</time>
      </trkpt>
      <trkpt lat="45.33029" lon="4.47152">
        <ele>1093.62</ele>
        <time>2022-02-27T14:44:51Z</time>
      </trkpt>
      <trkpt lat="45.33035" lon="4.4716">
        <ele>1094.72</ele>
        <time>2022-02-27T14:45:00Z</time>
      </trkpt>
      <trkpt lat="45.33044" lon="4.47211">
        <ele>1099.53</ele>
        <time>2022-02-27T14:45:52Z</time>
      </trkpt>
      <trkpt lat="45.33049" lon="4.47223">
        <ele>1101.02</ele>
        <time>2022-02-27T14:46:02Z</time>
      </trkpt>
      <trkpt lat="45.33056" lon="4.47234">
        <ele>1102.73</ele>
        <time>2022-02-27T14:46:11Z</time>
      </trkpt>
      <trkpt lat="45.33056" lon="4.47236">
        <ele>1103.05</ele>
        <time>2022-02-27T14:46:13Z</time>
      </trkpt>
      <trkpt lat="45.32848" lon="4.47597">
        <ele>1119.71</ele>
        <time>2022-02-27T14:52:30Z</time>
      </trkpt>
      <trkpt lat="45.32846" lon="4.47602">
        <ele>1120.33</ele>
        <time>2022-02-27T14:52:35Z</time>
      </trkpt>
      <trkpt lat="45.32833" lon="4.47627">
        <ele>1122.09</ele>
        <time>2022-02-27T14:52:53Z</time>
      </trkpt>
      <trkpt lat="45.32824" lon="4.47641">
        <ele>1123.97</ele>
        <time>2022-02-27T14:53:06Z</time>
      </trkpt>
      <trkpt lat="45.32817" lon="4.47657">
        <ele>1125.21</ele>
        <time>2022-02-27T14:53:19Z</time>
      </trkpt>
      <trkpt lat="45.32809" lon="4.4767">
        <ele>1125.65</ele>
        <time>2022-02-27T14:53:31Z</time>
      </trkpt>
      <trkpt lat="45.32805" lon="4.47675">
        <ele>1125.49</ele>
        <time>2022-02-27T14:53:36Z</time>
      </trkpt>
      <trkpt lat="45.32797" lon="4.47701">
        <ele>1125.57</ele>
        <time>2022-02-27T14:53:52Z</time>
      </trkpt>
      <trkpt lat="45.32793" lon="4.47713">
        <ele>1125.57</ele>
        <time>2022-02-27T14:53:59Z</time>
      </trkpt>
      <trkpt lat="45.3279" lon="4.47727">
        <ele>1125.57</ele>
        <time>2022-02-27T14:54:06Z</time>
      </trkpt>
      <trkpt lat="45.32787" lon="4.4775">
        <ele>1126.02</ele>
        <time>2022-02-27T14:54:18Z</time>
      </trkpt>
      <trkpt lat="45.32789" lon="4.47757">
        <ele>1126.13</ele>
        <time>2022-02-27T14:54:25Z</time>
      </trkpt>
      <trkpt lat="45.32787" lon="4.47764">
        <ele>1126.51</ele>
        <time>2022-02-27T14:54:34Z</time>
      </trkpt>
      <trkpt lat="45.32787" lon="4.47766">
        <ele>1126.52</ele>
        <time>2022-02-27T14:54:36Z</time>
      </trkpt>
      <trkpt lat="45.32785" lon="4.47771">
        <ele>1126.53</ele>
        <time>2022-02-27T14:54:43Z</time>
      </trkpt>
      <trkpt lat="45.32784" lon="4.47772">
        <ele>1126.53</ele>
        <time>2022-02-27T14:54:45Z</time>
      </trkpt>
      <trkpt lat="45.32717" lon="4.47933">
        <ele>1130.72</ele>
        <time>2022-02-27T14:56:29Z</time>
      </trkpt>
      <trkpt lat="45.32707" lon="4.4794">
        <ele>1130.61</ele>
        <time>2022-02-27T14:56:41Z</time>
      </trkpt>
      <trkpt lat="45.32706" lon="4.4794">
        <ele>1130.6</ele>
        <time>2022-02-27T14:56:42Z</time>
      </trkpt>
      <trkpt lat="45.32698" lon="4.47946">
        <ele>1130.5</ele>
        <time>2022-02-27T14:56:49Z</time>
      </trkpt>
      <trkpt lat="45.32695" lon="4.47946">
        <ele>1130.46</ele>
        <time>2022-02-27T14:56:51Z</time>
      </trkpt>
      <trkpt lat="45.32687" lon="4.47951">
        <ele>1130.39</ele>
        <time>2022-02-27T14:56:58Z</time>
      </trkpt>
      <trkpt lat="45.32684" lon="4.47953">
        <ele>1130.39</ele>
        <time>2022-02-27T14:57:00Z</time>
      </trkpt>
      <trkpt lat="45.32675" lon="4.47966">
        <ele>1130.32</ele>
        <time>2022-02-27T14:57:09Z</time>
      </trkpt>
      <trkpt lat="45.32671" lon="4.47981">
        <ele>1130.32</ele>
        <time>2022-02-27T14:57:15Z</time>
      </trkpt>
      <trkpt lat="45.32673" lon="4.47998">
        <ele>1130.6</ele>
        <time>2022-02-27T14:57:26Z</time>
      </trkpt>
      <trkpt lat="45.32675" lon="4.48012">
        <ele>1132.2</ele>
        <time>2022-02-27T14:57:37Z</time>
      </trkpt>
      <trkpt lat="45.32677" lon="4.4802">
        <ele>1132.81</ele>
        <time>2022-02-27T14:57:44Z</time>
      </trkpt>
      <trkpt lat="45.32663" lon="4.48087">
        <ele>1138.13</ele>
        <time>2022-02-27T14:58:52Z</time>
      </trkpt>
      <trkpt lat="45.32653" lon="4.481">
        <ele>1137.93</ele>
        <time>2022-02-27T14:59:03Z</time>
      </trkpt>
      <trkpt lat="45.32648" lon="4.48105">
        <ele>1137.77</ele>
        <time>2022-02-27T14:59:09Z</time>
      </trkpt>
      <trkpt lat="45.32638" lon="4.48111">
        <ele>1137.59</ele>
        <time>2022-02-27T14:59:17Z</time>
      </trkpt>
      <trkpt lat="45.32635" lon="4.48116">
        <ele>1137.54</ele>
        <time>2022-02-27T14:59:24Z</time>
      </trkpt>
    </trkseg>
  </trk>
</gpx>